Flugplatz Siegerland

Bericht für EDGS

vom 05.12. um 22:50 UTC

Wind 7 kt aus 270°

Sichtweite 800 m

aufgelockert bewölkt

bedeckt in 300 ft

Temperatur -1.0°C

Taupunkt -1.0°C

Luftfeuchtigkeit 100%

Luftdruck 1016 hPa

EDGS 052250Z AUTO 27007KT 0800 R31/P2000N // SCT000/// OVC003/// M01/M01 Q1016

Prognose für EDGS

vom 05.12. um 17:29 UTC

Am 05.12. zwischen 18:00 UTC und 03:00 UTC

Wind 5 kt aus 270°

Sichtweite 3500 m

feuchter Dunst

aufgebrochene Bewölkung in 200 ft


Am 05.12. zwischen 18:00 UTC und 03:00 UTC zeitweise

Sichtweite 300 m

Code: FZFG

TAF EDGS 051729Z 0518/0603 27005KT 3500 BR BKN002 TEMPO 0518/0603 0300 FZFG VV000
Impressum